createdAt,value
2017-01-20T00:00:37.981Z,1008.98
2017-01-20T00:01:38.012Z,1008.99
2017-01-20T00:02:38.033Z,1009.05
2017-01-20T00:03:38.060Z,1009.01
2017-01-20T00:04:38.085Z,1008.99
2017-01-20T00:05:38.109Z,1008.99
2017-01-20T00:06:38.138Z,1009
2017-01-20T00:07:38.158Z,1008.99
2017-01-20T00:08:38.188Z,1009
2017-01-20T00:09:38.212Z,1008.96
2017-01-20T00:10:38.237Z,1008.94
2017-01-20T00:11:38.266Z,1008.89
2017-01-20T00:12:38.291Z,1008.89
2017-01-20T00:13:38.316Z,1008.89
2017-01-20T00:14:38.340Z,1008.87
2017-01-20T00:15:38.365Z,1008.86
2017-01-20T00:16:38.389Z,1008.84
2017-01-20T00:17:38.418Z,1008.86
2017-01-20T00:18:38.443Z,1008.89
2017-01-20T00:19:38.468Z,1008.85
2017-01-20T00:20:38.492Z,1008.82
2017-01-20T00:21:38.521Z,1008.85
2017-01-20T00:22:38.546Z,1008.82
2017-01-20T00:23:38.571Z,1008.8
2017-01-20T00:24:38.595Z,1008.88
2017-01-20T00:25:38.620Z,1008.89
2017-01-20T00:26:38.644Z,1008.81
2017-01-20T00:27:38.674Z,1008.82
2017-01-20T00:28:38.699Z,1008.85
2017-01-20T00:29:38.723Z,1008.77
2017-01-20T00:30:38.748Z,1008.81
2017-01-20T00:31:38.777Z,1008.77
2017-01-20T00:32:38.802Z,1008.75
2017-01-20T00:33:38.826Z,1008.79
2017-01-20T00:34:38.855Z,1008.8
2017-01-20T00:35:38.875Z,1008.77
2017-01-20T00:36:38.897Z,1008.85
2017-01-20T00:37:38.930Z,1008.81
2017-01-20T00:38:38.950Z,1008.75
2017-01-20T00:39:38.979Z,1008.79
2017-01-20T00:40:39.004Z,1008.77
2017-01-20T00:41:39.028Z,1008.77
2017-01-20T00:42:39.053Z,1008.77
2017-01-20T00:43:39.081Z,1008.76
2017-01-20T00:44:39.102Z,1008.75
2017-01-20T00:45:39.131Z,1008.74
2017-01-20T00:46:39.155Z,1008.74
2017-01-20T00:47:39.181Z,1008.73
2017-01-20T00:48:39.205Z,1008.77
2017-01-20T00:49:39.234Z,1008.77
2017-01-20T00:50:39.259Z,1008.8
2017-01-20T00:51:39.284Z,1008.79
2017-01-20T00:52:39.308Z,1008.81
2017-01-20T00:53:39.332Z,1008.79
2017-01-20T00:54:39.358Z,1008.77
2017-01-20T00:55:39.379Z,1008.84
2017-01-20T00:56:39.411Z,1008.77
2017-01-20T00:57:39.436Z,1008.77
2017-01-20T00:58:39.460Z,1008.75
2017-01-20T00:59:39.485Z,1008.8
2017-01-20T01:00:39.509Z,1008.79
2017-01-20T01:01:39.530Z,1008.76
2017-01-20T01:02:39.560Z,1008.77
2017-01-20T01:03:39.584Z,1008.78
2017-01-20T01:04:39.614Z,1008.75
2017-01-20T01:05:39.636Z,1008.72
2017-01-20T01:06:39.665Z,1008.72
2017-01-20T01:07:39.687Z,1008.77
2017-01-20T01:08:39.712Z,1008.75
2017-01-20T01:09:39.736Z,1008.72
2017-01-20T01:10:39.761Z,1008.69
2017-01-20T01:11:39.789Z,1008.7
2017-01-20T01:12:39.814Z,1008.69
2017-01-20T01:13:39.839Z,1008.74
2017-01-20T01:14:39.863Z,1008.66
2017-01-20T01:15:39.888Z,1008.7
2017-01-20T01:16:39.912Z,1008.76
2017-01-20T01:17:39.937Z,1008.69
2017-01-20T01:18:39.957Z,1008.73
2017-01-20T01:19:39.990Z,1008.68
2017-01-20T01:20:40.012Z,1008.74
2017-01-20T01:21:40.043Z,1008.73
2017-01-20T01:22:40.063Z,1008.66
2017-01-20T01:23:40.088Z,1008.71
2017-01-20T01:24:40.114Z,1008.73
2017-01-20T01:25:40.138Z,1008.7
2017-01-20T01:26:40.162Z,1008.73
2017-01-20T01:27:40.181Z,1008.73
2017-01-20T01:28:40.212Z,1008.71
2017-01-20T01:29:40.236Z,1008.75
2017-01-20T01:30:40.265Z,1008.72
2017-01-20T01:31:40.289Z,1008.74
2017-01-20T01:32:40.314Z,1008.7
2017-01-20T01:33:40.339Z,1008.78
2017-01-20T01:34:40.363Z,1008.76
2017-01-20T01:35:40.387Z,1008.76
2017-01-20T01:36:40.409Z,1008.8
2017-01-20T01:37:40.438Z,1008.77
2017-01-20T01:38:40.462Z,1008.75
2017-01-20T01:39:40.487Z,1008.78
2017-01-20T01:40:40.516Z,1008.81
2017-01-20T01:41:40.541Z,1008.78
2017-01-20T01:42:40.565Z,1008.8
2017-01-20T01:43:40.590Z,1008.79
2017-01-20T01:44:40.614Z,1008.78
2017-01-20T01:45:40.643Z,1008.85
2017-01-20T01:46:40.660Z,1008.75
2017-01-20T01:47:40.689Z,1008.7
2017-01-20T01:48:40.718Z,1008.68
2017-01-20T01:49:40.743Z,1008.7
2017-01-20T01:50:40.772Z,1008.71
2017-01-20T01:51:40.791Z,1008.74
2017-01-20T01:52:40.812Z,1008.68
2017-01-20T01:53:40.841Z,1008.74
2017-01-20T01:54:40.866Z,1008.73
2017-01-20T01:55:40.890Z,1008.75
2017-01-20T01:56:40.915Z,1008.74
2017-01-20T01:57:40.940Z,1008.71
2017-01-20T01:58:40.960Z,1008.78
2017-01-20T01:59:40.989Z,1008.73
2017-01-20T02:00:41.017Z,1008.73
2017-01-20T02:01:41.042Z,1008.72
2017-01-20T02:02:41.069Z,1008.71
2017-01-20T02:03:41.087Z,1008.7
2017-01-20T02:04:41.117Z,1008.67
2017-01-20T02:05:41.141Z,1008.64
2017-01-20T02:06:41.162Z,1008.61
2017-01-20T02:07:41.192Z,1008.66
2017-01-20T02:08:41.216Z,1008.64
2017-01-20T02:09:41.236Z,1008.66
2017-01-20T02:10:41.269Z,1008.64
2017-01-20T02:11:41.291Z,1008.64
2017-01-20T02:12:41.315Z,1008.56
2017-01-20T02:13:41.339Z,1008.6
2017-01-20T02:14:41.368Z,1008.59
2017-01-20T02:15:41.392Z,1008.56
2017-01-20T02:16:41.417Z,1008.62
2017-01-20T02:17:41.442Z,1008.65
2017-01-20T02:18:41.467Z,1008.55
2017-01-20T02:19:41.492Z,1008.6
2017-01-20T02:20:41.517Z,1008.59
2017-01-20T02:21:41.542Z,1008.57
2017-01-20T02:22:41.566Z,1008.58
2017-01-20T02:23:41.591Z,1008.61
2017-01-20T02:24:41.617Z,1008.59
2017-01-20T02:25:41.640Z,1008.52
2017-01-20T02:26:41.661Z,1008.56
2017-01-20T02:27:41.690Z,1008.62
2017-01-20T02:28:41.715Z,1008.56
2017-01-20T02:29:41.743Z,1008.6
2017-01-20T02:30:41.764Z,1008.54
2017-01-20T02:31:41.793Z,1008.53
2017-01-20T02:32:41.813Z,1008.59
2017-01-20T02:33:41.842Z,1008.58
2017-01-20T02:34:41.867Z,1008.56
2017-01-20T02:35:41.892Z,1008.57
2017-01-20T02:36:41.916Z,1008.57
2017-01-20T02:37:41.941Z,1008.57
2017-01-20T02:38:41.966Z,1008.59
2017-01-20T02:39:41.991Z,1008.55
2017-01-20T02:40:42.012Z,1008.56
2017-01-20T02:41:42.038Z,1008.57
2017-01-20T02:42:42.065Z,1008.54
2017-01-20T02:43:42.089Z,1008.52
2017-01-20T02:44:42.113Z,1008.53
2017-01-20T02:45:42.138Z,1008.56
2017-01-20T02:46:42.163Z,1008.53
2017-01-20T02:47:42.187Z,1008.52
2017-01-20T02:48:42.212Z,1008.5
2017-01-20T02:49:42.237Z,1008.46
2017-01-20T02:50:42.261Z,1008.43
2017-01-20T02:51:42.286Z,1008.46
2017-01-20T02:52:42.311Z,1008.43
2017-01-20T02:53:42.334Z,1008.45
2017-01-20T02:54:42.363Z,1008.49
2017-01-20T02:55:42.380Z,1008.41
2017-01-20T02:56:42.411Z,1008.46
2017-01-20T02:57:42.430Z,1008.42
2017-01-20T02:58:42.463Z,1008.4
2017-01-20T02:59:42.483Z,1008.43
2017-01-20T03:00:42.508Z,1008.44
2017-01-20T03:01:42.538Z,1008.42
2017-01-20T03:02:42.558Z,1008.43
2017-01-20T03:03:42.582Z,1008.43
2017-01-20T03:04:42.611Z,1008.45
2017-01-20T03:05:42.636Z,1008.42
2017-01-20T03:06:42.656Z,1008.41
2017-01-20T03:07:42.681Z,1008.45
2017-01-20T03:08:42.710Z,1008.43
2017-01-20T03:09:42.735Z,1008.41
2017-01-20T03:10:42.764Z,1008.47
2017-01-20T03:11:42.782Z,1008.44
2017-01-20T03:12:42.809Z,1008.41
2017-01-20T03:13:42.834Z,1008.45
2017-01-20T03:14:42.859Z,1008.44
2017-01-20T03:15:42.882Z,1008.5
2017-01-20T03:16:42.907Z,1008.54
2017-01-20T03:17:42.933Z,1008.5
2017-01-20T03:18:42.958Z,1008.56
2017-01-20T03:19:42.983Z,1008.54
2017-01-20T03:20:43.006Z,1008.52
2017-01-20T03:21:43.027Z,1008.51
2017-01-20T03:22:43.056Z,1008.49
2017-01-20T03:23:43.077Z,1008.48
2017-01-20T03:24:43.106Z,1008.49
2017-01-20T03:25:43.131Z,1008.49
2017-01-20T03:26:43.155Z,1008.49
2017-01-20T03:27:43.180Z,1008.5
2017-01-20T03:28:43.204Z,1008.55
2017-01-20T03:29:43.229Z,1008.53
2017-01-20T03:30:43.250Z,1008.54
2017-01-20T03:31:43.282Z,1008.57
2017-01-20T03:32:43.303Z,1008.5
2017-01-20T03:33:43.328Z,1008.49
2017-01-20T03:34:43.353Z,1008.5
2017-01-20T03:35:43.378Z,1008.51
2017-01-20T03:36:43.403Z,1008.46
2017-01-20T03:37:43.427Z,1008.45
2017-01-20T03:38:43.452Z,1008.48
2017-01-20T03:39:43.476Z,1008.47
2017-01-20T03:40:43.501Z,1008.42
2017-01-20T03:41:43.530Z,1008.44
2017-01-20T03:42:43.551Z,1008.4
2017-01-20T03:43:43.576Z,1008.47
2017-01-20T03:44:43.601Z,1008.45
2017-01-20T03:45:43.625Z,1008.44
2017-01-20T03:46:43.649Z,1008.41
2017-01-20T03:47:43.670Z,1008.44
2017-01-20T03:48:43.700Z,1008.4
2017-01-20T03:49:43.724Z,1008.43
2017-01-20T03:50:43.749Z,1008.46
2017-01-20T03:51:43.772Z,1008.48
2017-01-20T03:52:43.799Z,1008.42
2017-01-20T03:53:43.823Z,1008.45
2017-01-20T03:54:43.847Z,1008.48
2017-01-20T03:55:43.872Z,1008.47
2017-01-20T03:56:43.897Z,1008.44
2017-01-20T03:57:43.921Z,1008.51
2017-01-20T03:58:43.947Z,1008.5
2017-01-20T03:59:43.968Z,1008.48
2017-01-20T04:00:43.996Z,1008.43
2017-01-20T04:01:44.023Z,1008.46
2017-01-20T04:02:44.045Z,1008.44
2017-01-20T04:03:44.071Z,1008.41
2017-01-20T04:04:44.095Z,1008.51
2017-01-20T04:05:44.133Z,1008.5
2017-01-20T04:06:44.144Z,1008.45
2017-01-20T04:07:44.169Z,1008.46
2017-01-20T04:08:44.190Z,1008.46
2017-01-20T04:09:44.215Z,1008.44
2017-01-20T04:10:44.243Z,1008.39
2017-01-20T04:11:44.268Z,1008.39
2017-01-20T04:12:44.288Z,1008.4
2017-01-20T04:13:44.313Z,1008.44
2017-01-20T04:14:44.337Z,1008.4
2017-01-20T04:15:44.363Z,1008.4
2017-01-20T04:16:44.388Z,1008.37
2017-01-20T04:17:44.412Z,1008.35
2017-01-20T04:18:44.436Z,1008.39
2017-01-20T04:19:44.460Z,1008.4
2017-01-20T04:20:44.486Z,1008.38
2017-01-20T04:21:44.509Z,1008.37
2017-01-20T04:22:44.535Z,1008.35
2017-01-20T04:23:44.560Z,1008.38
2017-01-20T04:24:44.585Z,1008.4
2017-01-20T04:25:44.608Z,1008.47
2017-01-20T04:26:44.633Z,1008.35
2017-01-20T04:27:44.657Z,1008.37
2017-01-20T04:28:44.678Z,1008.36
2017-01-20T04:29:44.703Z,1008.38
2017-01-20T04:30:44.731Z,1008.36
2017-01-20T04:31:44.749Z,1008.41
2017-01-20T04:32:44.781Z,1008.34
2017-01-20T04:33:44.800Z,1008.39
2017-01-20T04:34:44.829Z,1008.35
2017-01-20T04:35:44.850Z,1008.34
2017-01-20T04:36:44.879Z,1008.38
2017-01-20T04:37:44.903Z,1008.37
2017-01-20T04:38:44.928Z,1008.34
2017-01-20T04:39:44.957Z,1008.36
2017-01-20T04:40:44.973Z,1008.35
2017-01-20T04:41:44.998Z,1008.37
2017-01-20T04:42:45.022Z,1008.32
2017-01-20T04:43:45.048Z,1008.35
2017-01-20T04:44:45.072Z,1008.33
2017-01-20T04:45:45.097Z,1008.34
2017-01-20T04:46:45.120Z,1008.32
2017-01-20T04:47:45.146Z,1008.27
2017-01-20T04:48:45.171Z,1008.33
2017-01-20T04:49:45.196Z,1008.33
2017-01-20T04:50:45.225Z,1008.31
2017-01-20T04:51:45.245Z,1008.32
2017-01-20T04:52:45.270Z,1008.3
2017-01-20T04:53:45.295Z,1008.31
2017-01-20T04:54:45.320Z,1008.33
2017-01-20T04:55:45.345Z,1008.36
2017-01-20T04:56:45.369Z,1008.35
2017-01-20T04:57:45.394Z,1008.4
2017-01-20T04:58:45.433Z,1008.33
2017-01-20T04:59:45.443Z,1008.29
2017-01-20T05:00:45.469Z,1008.32
2017-01-20T05:01:45.493Z,1008.33
2017-01-20T05:02:45.517Z,1008.33
2017-01-20T05:03:45.539Z,1008.33
2017-01-20T05:04:45.564Z,1008.29
2017-01-20T05:05:45.588Z,1008.37
2017-01-20T05:06:45.613Z,1008.36
2017-01-20T05:07:45.639Z,1008.41
2017-01-20T05:08:45.662Z,1008.35
2017-01-20T05:09:45.688Z,1008.37
2017-01-20T05:10:45.712Z,1008.35
2017-01-20T05:11:45.736Z,1008.37
2017-01-20T05:12:45.763Z,1008.42
2017-01-20T05:13:45.786Z,1008.35
2017-01-20T05:14:45.811Z,1008.41
2017-01-20T05:15:45.832Z,1008.38
2017-01-20T05:16:45.861Z,1008.39
2017-01-20T05:17:45.890Z,1008.39
2017-01-20T05:18:45.911Z,1008.36
2017-01-20T05:19:45.936Z,1008.37
2017-01-20T05:20:45.960Z,1008.43
2017-01-20T05:21:45.985Z,1008.48
2017-01-20T05:22:46.010Z,1008.4
2017-01-20T05:23:46.035Z,1008.41
2017-01-20T05:24:46.059Z,1008.42
2017-01-20T05:25:46.080Z,1008.43
2017-01-20T05:26:46.105Z,1008.42
2017-01-20T05:27:46.130Z,1008.43
2017-01-20T05:28:46.154Z,1008.42
2017-01-20T05:29:46.186Z,1008.47
2017-01-20T05:30:46.205Z,1008.45
2017-01-20T05:31:46.229Z,1008.49
2017-01-20T05:32:46.253Z,1008.45
2017-01-20T05:33:46.279Z,1008.45
2017-01-20T05:34:46.304Z,1008.39
2017-01-20T05:35:46.328Z,1008.39
2017-01-20T05:36:46.352Z,1008.39
2017-01-20T05:37:46.377Z,1008.36
2017-01-20T05:38:46.402Z,1008.38
2017-01-20T05:39:46.427Z,1008.37
2017-01-20T05:40:46.444Z,1008.36
2017-01-20T05:41:46.477Z,1008.37
2017-01-20T05:42:46.502Z,1008.35
2017-01-20T05:43:46.523Z,1008.37
2017-01-20T05:44:46.547Z,1008.35
2017-01-20T05:45:46.572Z,1008.39
2017-01-20T05:46:46.597Z,1008.31
2017-01-20T05:47:46.621Z,1008.33
2017-01-20T05:48:46.646Z,1008.36
2017-01-20T05:49:46.672Z,1008.36
2017-01-20T05:50:46.696Z,1008.31
2017-01-20T05:51:46.720Z,1008.29
2017-01-20T05:52:46.745Z,1008.3
2017-01-20T05:53:46.770Z,1008.28
2017-01-20T05:54:46.794Z,1008.27
2017-01-20T05:55:46.818Z,1008.25
2017-01-20T05:56:46.843Z,1008.3
2017-01-20T05:57:46.869Z,1008.3
2017-01-20T05:58:46.894Z,1008.3
2017-01-20T05:59:46.919Z,1008.26
2017-01-20T06:00:46.942Z,1008.23
2017-01-20T06:01:46.968Z,1008.24
2017-01-20T06:02:46.989Z,1008.3
2017-01-20T06:03:47.018Z,1008.26
2017-01-20T06:04:47.042Z,1008.26
2017-01-20T06:05:47.067Z,1008.24
2017-01-20T06:06:47.092Z,1008.27
2017-01-20T06:07:47.116Z,1008.27
2017-01-20T06:08:47.143Z,1008.28
2017-01-20T06:09:47.166Z,1008.23
2017-01-20T06:10:47.191Z,1008.22
2017-01-20T06:11:47.217Z,1008.24
2017-01-20T06:12:47.241Z,1008.19
2017-01-20T06:13:47.265Z,1008.16
2017-01-20T06:14:47.287Z,1008.17
2017-01-20T06:15:47.314Z,1008.19
2017-01-20T06:16:47.340Z,1008.24
2017-01-20T06:17:47.365Z,1008.25
2017-01-20T06:18:47.388Z,1008.23
2017-01-20T06:19:47.417Z,1008.19
2017-01-20T06:20:47.438Z,1008.17
2017-01-20T06:21:47.467Z,1008.26
2017-01-20T06:22:47.488Z,1008.19
2017-01-20T06:23:47.510Z,1008.17
2017-01-20T06:24:47.537Z,1008.28
2017-01-20T06:25:47.562Z,1008.25
2017-01-20T06:26:47.586Z,1008.23
2017-01-20T06:27:47.611Z,1008.26
2017-01-20T06:28:47.636Z,1008.32
2017-01-20T06:29:47.664Z,1008.34
2017-01-20T06:30:47.685Z,1008.35
2017-01-20T06:31:47.709Z,1008.4
2017-01-20T06:32:47.734Z,1008.37
2017-01-20T06:33:47.759Z,1008.32
2017-01-20T06:34:47.784Z,1008.37
2017-01-20T06:35:47.809Z,1008.36
2017-01-20T06:36:47.833Z,1008.37
2017-01-20T06:37:47.854Z,1008.48
2017-01-20T06:38:47.883Z,1008.36
2017-01-20T06:39:47.908Z,1008.44
2017-01-20T06:40:47.936Z,1008.41
2017-01-20T06:41:47.960Z,1008.43
2017-01-20T06:42:47.982Z,1008.39
2017-01-20T06:43:48.011Z,1008.38
2017-01-20T06:44:48.036Z,1008.42
2017-01-20T06:45:48.060Z,1008.42
2017-01-20T06:46:48.081Z,1008.42
2017-01-20T06:47:48.109Z,1008.39
2017-01-20T06:48:48.134Z,1008.35
2017-01-20T06:49:48.158Z,1008.46
2017-01-20T06:50:48.182Z,1008.44
2017-01-20T06:51:48.208Z,1008.45
2017-01-20T06:52:48.234Z,1008.42
2017-01-20T06:53:48.254Z,1008.37
2017-01-20T06:54:48.282Z,1008.44
2017-01-20T06:55:48.308Z,1008.45
2017-01-20T06:56:48.327Z,1008.47
2017-01-20T06:57:48.361Z,1008.41
2017-01-20T06:58:48.381Z,1008.45
2017-01-20T06:59:48.410Z,1008.43
2017-01-20T07:00:48.436Z,1008.36
2017-01-20T07:01:48.476Z,1008.39
2017-01-20T07:02:48.485Z,1008.45
2017-01-20T07:03:48.509Z,1008.47
2017-01-20T07:04:48.534Z,1008.43
2017-01-20T07:05:48.560Z,1008.48
2017-01-20T07:06:48.580Z,1008.41
2017-01-20T07:07:48.608Z,1008.41
2017-01-20T07:08:48.633Z,1008.39
2017-01-20T07:09:48.657Z,1008.43
2017-01-20T07:10:48.681Z,1008.4
2017-01-20T07:11:48.708Z,1008.41
2017-01-20T07:12:48.734Z,1008.41
2017-01-20T07:13:48.760Z,1008.41
2017-01-20T07:14:48.785Z,1008.35
2017-01-20T07:15:48.814Z,1008.37
2017-01-20T07:16:48.835Z,1008.4
2017-01-20T07:17:48.856Z,1008.41
2017-01-20T07:18:48.884Z,1008.4
2017-01-20T07:19:48.908Z,1008.39
2017-01-20T07:20:48.934Z,1008.4
2017-01-20T07:21:48.959Z,1008.39
2017-01-20T07:22:48.983Z,1008.36
2017-01-20T07:23:49.009Z,1008.36
2017-01-20T07:24:49.037Z,1008.42
2017-01-20T07:25:49.061Z,1008.38
2017-01-20T07:26:49.086Z,1008.44
2017-01-20T07:27:49.111Z,1008.44
2017-01-20T07:28:49.136Z,1008.42
2017-01-20T07:29:49.160Z,1008.42
2017-01-20T07:30:49.186Z,1008.43
2017-01-20T07:31:49.210Z,1008.44
2017-01-20T07:32:49.231Z,1008.43
2017-01-20T07:33:49.259Z,1008.55
2017-01-20T07:34:49.285Z,1008.48
2017-01-20T07:35:49.313Z,1008.51
2017-01-20T07:36:49.338Z,1008.49
2017-01-20T07:37:49.360Z,1008.54
2017-01-20T07:38:49.388Z,1008.52
2017-01-20T07:39:49.413Z,1008.52
2017-01-20T07:40:49.436Z,1008.51
2017-01-20T07:41:49.462Z,1008.59
2017-01-20T07:42:49.487Z,1008.57
2017-01-20T07:43:49.511Z,1008.52
2017-01-20T07:44:49.536Z,1008.57
2017-01-20T07:45:49.561Z,1008.6
2017-01-20T07:46:49.591Z,1008.55
2017-01-20T07:47:49.615Z,1008.56
2017-01-20T07:48:49.639Z,1008.55
2017-01-20T07:49:49.664Z,1008.57
2017-01-20T07:50:49.688Z,1008.59
2017-01-20T07:51:49.713Z,1008.51
2017-01-20T07:52:49.738Z,1008.54
2017-01-20T07:53:49.763Z,1008.52
2017-01-20T07:54:49.788Z,1008.52
2017-01-20T07:55:49.808Z,1008.5
2017-01-20T07:56:49.841Z,1008.54
2017-01-20T07:57:49.865Z,1008.5
2017-01-20T07:58:49.889Z,1008.5
2017-01-20T07:59:49.914Z,1008.57
2017-01-20T08:00:49.939Z,1008.58
2017-01-20T08:01:49.971Z,1008.58
2017-01-20T08:02:49.988Z,1008.56
2017-01-20T08:03:50.009Z,1008.58
2017-01-20T08:04:50.035Z,1008.55
2017-01-20T08:05:50.066Z,1008.61
2017-01-20T08:06:50.087Z,1008.6
2017-01-20T08:07:50.114Z,1008.64
2017-01-20T08:08:50.140Z,1008.57
2017-01-20T08:09:50.164Z,1008.6
2017-01-20T08:10:50.188Z,1008.61
2017-01-20T08:11:50.222Z,1008.67
2017-01-20T08:12:50.238Z,1008.58
2017-01-20T08:13:50.263Z,1008.63
2017-01-20T08:14:50.283Z,1008.65
2017-01-20T08:15:50.315Z,1008.6
2017-01-20T08:16:50.340Z,1008.63
2017-01-20T08:17:50.364Z,1008.6
2017-01-20T08:18:50.389Z,1008.67
2017-01-20T08:19:50.416Z,1008.61
2017-01-20T08:20:50.433Z,1008.65
2017-01-20T08:21:50.463Z,1008.68
2017-01-20T08:22:50.487Z,1008.65
2017-01-20T08:23:50.511Z,1008.6
2017-01-20T08:24:50.536Z,1008.65
2017-01-20T08:25:50.565Z,1008.65
2017-01-20T08:26:50.589Z,1008.65
2017-01-20T08:27:50.614Z,1008.66
2017-01-20T08:28:50.639Z,1008.64
2017-01-20T08:29:50.662Z,1008.67
2017-01-20T08:30:50.688Z,1008.7
2017-01-20T08:31:50.708Z,1008.71
2017-01-20T08:32:50.736Z,1008.74
2017-01-20T08:33:50.765Z,1008.78
2017-01-20T08:34:50.785Z,1008.74
2017-01-20T08:35:50.810Z,1008.75
2017-01-20T08:36:50.838Z,1008.78
2017-01-20T08:37:50.859Z,1008.81
2017-01-20T08:38:50.889Z,1008.78
2017-01-20T08:39:50.912Z,1008.84
2017-01-20T08:40:50.937Z,1008.81
2017-01-20T08:41:50.961Z,1008.84
2017-01-20T08:42:50.986Z,1008.82
2017-01-20T08:43:51.010Z,1008.91
2017-01-20T08:44:51.036Z,1008.92
2017-01-20T08:45:51.071Z,1008.93
2017-01-20T08:46:51.087Z,1008.91
2017-01-20T08:47:51.113Z,1008.95
2017-01-20T08:48:51.133Z,1008.88
2017-01-20T08:49:51.162Z,1008.92
2017-01-20T08:50:51.185Z,1008.93
2017-01-20T08:51:51.212Z,1008.94
2017-01-20T08:52:51.236Z,1008.92
2017-01-20T08:53:51.261Z,1008.98
2017-01-20T08:54:51.286Z,1008.95
2017-01-20T08:55:51.315Z,1008.89
2017-01-20T08:56:51.340Z,1008.91
2017-01-20T08:57:51.364Z,1008.9
2017-01-20T08:58:51.389Z,1008.92
2017-01-20T08:59:51.414Z,1008.89
2017-01-20T09:00:51.442Z,1008.91
2017-01-20T09:01:51.468Z,1008.9
2017-01-20T09:02:51.492Z,1008.89
2017-01-20T09:03:51.516Z,1008.91
2017-01-20T09:04:51.542Z,1008.84
2017-01-20T09:05:51.562Z,1008.85
2017-01-20T09:06:51.590Z,1008.85
2017-01-20T09:07:51.621Z,1008.89
2017-01-20T09:08:51.644Z,1008.89
2017-01-20T09:09:51.669Z,1008.82
2017-01-20T09:10:51.694Z,1008.82
2017-01-20T09:11:51.714Z,1008.82
2017-01-20T09:12:51.744Z,1008.81
2017-01-20T09:13:51.768Z,1008.77
2017-01-20T09:14:51.792Z,1008.79
2017-01-20T09:15:51.821Z,1008.8
2017-01-20T09:16:51.846Z,1008.81
2017-01-20T09:17:51.871Z,1008.86
2017-01-20T09:18:51.896Z,1008.83
2017-01-20T09:19:51.923Z,1008.76
2017-01-20T09:20:51.950Z,1008.82
2017-01-20T09:21:51.974Z,1008.82
2017-01-20T09:22:52.000Z,1008.81
2017-01-20T09:23:52.023Z,1008.85
2017-01-20T09:24:52.048Z,1008.85
2017-01-20T09:25:52.080Z,1008.87
2017-01-20T09:26:52.102Z,1008.89
2017-01-20T09:27:52.126Z,1008.87
2017-01-20T09:28:52.153Z,1008.86
2017-01-20T09:29:52.175Z,1008.89
2017-01-20T09:30:52.200Z,1008.89
2017-01-20T09:31:52.229Z,1008.88
2017-01-20T09:32:52.253Z,1008.92
2017-01-20T09:33:52.278Z,1008.95
2017-01-20T09:34:52.299Z,1008.94
2017-01-20T09:35:52.328Z,1008.99
2017-01-20T09:36:52.361Z,1008.96
2017-01-20T09:37:52.381Z,1008.94
2017-01-20T09:38:52.406Z,1008.97
2017-01-20T09:39:52.430Z,1008.93
2017-01-20T09:40:52.456Z,1008.94
2017-01-20T09:41:52.481Z,1008.94
2017-01-20T09:42:52.509Z,1008.93
2017-01-20T09:43:52.531Z,1008.92
2017-01-20T09:44:52.559Z,1008.92
2017-01-20T09:45:52.584Z,1008.94
2017-01-20T09:46:52.609Z,1008.88
2017-01-20T09:47:52.637Z,1008.92
2017-01-20T09:48:52.662Z,1008.84
2017-01-20T09:49:52.687Z,1008.9
2017-01-20T09:50:52.711Z,1008.87
2017-01-20T09:51:52.740Z,1008.87
2017-01-20T09:52:52.766Z,1008.86
2017-01-20T09:53:52.790Z,1008.84
2017-01-20T09:54:52.815Z,1008.88
2017-01-20T09:55:52.843Z,1008.86
2017-01-20T09:56:52.868Z,1008.86
2017-01-20T09:57:52.893Z,1008.89
2017-01-20T09:58:52.919Z,1008.84
2017-01-20T09:59:52.943Z,1008.84
2017-01-20T10:00:52.971Z,1008.87
2017-01-20T10:01:52.992Z,1008.88
2017-01-20T10:02:53.021Z,1008.88
2017-01-20T10:03:53.041Z,1008.86
2017-01-20T10:04:53.074Z,1008.89
2017-01-20T10:05:53.099Z,1008.87
2017-01-20T10:06:53.124Z,1008.86
2017-01-20T10:07:53.149Z,1008.89
2017-01-20T10:08:53.173Z,1008.85
2017-01-20T10:09:53.203Z,1008.88
2017-01-20T10:10:53.226Z,1008.85
2017-01-20T10:11:53.252Z,1008.88
2017-01-20T10:12:53.277Z,1008.86
2017-01-20T10:13:53.317Z,1008.84
2017-01-20T10:14:53.330Z,1008.83
2017-01-20T10:15:53.355Z,1008.83
2017-01-20T10:16:53.384Z,1008.81
2017-01-20T10:17:53.404Z,1008.8
2017-01-20T10:18:53.428Z,1008.76
2017-01-20T10:19:53.456Z,1008.76
2017-01-20T10:20:53.486Z,1008.76
2017-01-20T10:21:53.507Z,1008.78
2017-01-20T10:22:53.531Z,1008.78
2017-01-20T10:23:53.561Z,1008.77
2017-01-20T10:24:53.585Z,1008.73
2017-01-20T10:25:53.610Z,1008.7
2017-01-20T10:26:53.635Z,1008.76
2017-01-20T10:27:53.659Z,1008.75
2017-01-20T10:28:53.683Z,1008.76
2017-01-20T10:29:53.712Z,1008.78
2017-01-20T10:30:53.737Z,1008.7
2017-01-20T10:31:53.762Z,1008.72
2017-01-20T10:32:53.786Z,1008.72
2017-01-20T10:33:53.815Z,1008.73
2017-01-20T10:34:53.840Z,1008.69
2017-01-20T10:35:53.865Z,1008.67
2017-01-20T10:36:53.889Z,1008.69
2017-01-20T10:37:53.918Z,1008.67
2017-01-20T10:38:53.943Z,1008.66
2017-01-20T10:39:53.968Z,1008.7
2017-01-20T10:40:53.988Z,1008.64
2017-01-20T10:41:54.017Z,1008.61
2017-01-20T10:42:54.046Z,1008.58
2017-01-20T10:43:54.070Z,1008.53
2017-01-20T10:44:54.094Z,1008.57
2017-01-20T10:45:54.120Z,1008.52
2017-01-20T10:46:54.149Z,1008.48
2017-01-20T10:47:54.173Z,1008.53
2017-01-20T10:48:54.198Z,1008.46
2017-01-20T10:49:54.223Z,1008.52
2017-01-20T10:50:54.251Z,1008.55
2017-01-20T10:51:54.276Z,1008.53
2017-01-20T10:52:54.301Z,1008.5
2017-01-20T10:53:54.326Z,1008.53
2017-01-20T10:54:54.354Z,1008.51
2017-01-20T10:55:54.377Z,1008.53
2017-01-20T10:56:54.404Z,1008.52
2017-01-20T10:57:54.433Z,1008.47
2017-01-20T10:58:54.458Z,1008.51
2017-01-20T10:59:54.483Z,1008.52
2017-01-20T11:00:54.507Z,1008.52
2017-01-20T11:01:54.532Z,1008.48
2017-01-20T11:02:54.561Z,1008.46
2017-01-20T11:03:54.586Z,1008.44
2017-01-20T11:04:54.610Z,1008.44
2017-01-20T11:05:54.635Z,1008.36
2017-01-20T11:06:54.662Z,1008.38
2017-01-20T11:07:54.689Z,1008.42
2017-01-20T11:08:54.713Z,1008.39
2017-01-20T11:09:54.742Z,1008.35
2017-01-20T11:10:54.767Z,1008.35
2017-01-20T11:11:54.792Z,1008.28
2017-01-20T11:12:54.818Z,1008.3
2017-01-20T11:13:54.848Z,1008.27
2017-01-20T11:14:54.876Z,1008.27
2017-01-20T11:15:54.906Z,1008.28
2017-01-20T11:16:54.919Z,1008.31
2017-01-20T11:17:54.948Z,1008.28
2017-01-20T11:18:54.969Z,1008.27
2017-01-20T11:19:55.002Z,1008.21
2017-01-20T11:20:55.026Z,1008.25
2017-01-20T11:21:55.055Z,1008.26
2017-01-20T11:22:55.076Z,1008.18
2017-01-20T11:23:55.100Z,1008.2
2017-01-20T11:24:55.129Z,1008.2
2017-01-20T11:25:55.154Z,1008.17
2017-01-20T11:26:55.183Z,1008.22
2017-01-20T11:27:55.206Z,1008.17
2017-01-20T11:28:55.230Z,1008.12
2017-01-20T11:29:55.248Z,1008.11
2017-01-20T11:30:55.286Z,1008.1
2017-01-20T11:31:55.310Z,1008.06
2017-01-20T11:32:55.339Z,1008.04
2017-01-20T11:33:55.364Z,1008.01
2017-01-20T11:34:55.388Z,1007.98
2017-01-20T11:35:55.417Z,1007.99
2017-01-20T11:36:55.443Z,1007.95
2017-01-20T11:37:55.468Z,1007.99
2017-01-20T11:38:55.492Z,1007.96
2017-01-20T11:39:55.521Z,1007.97
2017-01-20T11:40:55.546Z,1007.94
2017-01-20T11:41:55.570Z,1007.96
2017-01-20T11:42:55.599Z,1007.95
2017-01-20T11:43:55.624Z,1007.95
2017-01-20T11:44:55.657Z,1007.93
2017-01-20T11:45:55.677Z,1007.94
2017-01-20T11:46:55.703Z,1007.94
2017-01-20T11:47:55.730Z,1007.91
2017-01-20T11:48:55.755Z,1007.92
2017-01-20T11:49:55.781Z,1007.87
2017-01-20T11:50:55.809Z,1007.89
2017-01-20T11:51:55.834Z,1007.86
2017-01-20T11:52:55.858Z,1007.8
2017-01-20T11:53:55.888Z,1007.84
2017-01-20T11:54:55.912Z,1007.79
2017-01-20T11:55:55.939Z,1007.79
2017-01-20T11:56:55.961Z,1007.78
2017-01-20T11:57:55.990Z,1007.71
2017-01-20T11:58:56.020Z,1007.68
2017-01-20T11:59:56.040Z,1007.73
2017-01-20T12:00:56.069Z,1007.74
2017-01-20T12:01:56.097Z,1007.72
2017-01-20T12:02:56.122Z,1007.66
2017-01-20T12:03:56.146Z,1007.66
2017-01-20T12:04:56.175Z,1007.66
2017-01-20T12:05:56.199Z,1007.65
2017-01-20T12:06:56.228Z,1007.6
2017-01-20T12:07:56.253Z,1007.59
2017-01-20T12:08:56.277Z,1007.56